Time;durP1;ratioP1;P1;durP2;ratioP2;P2;SDS_P1;SDS_P2;PMS_P1;PMS_P2;Temp;Humidity;BMP_temperature;BMP_pressure;BME280_temperature;BME280_humidity;BME280_pressure;Samples;Min_cycle;Max_cycle;Signal;HPM_P1;HPM_P2
2023/01/21 00:01:47;;;;;;;2.00;1.45;;;0.40;99.90;;;;;;5010247;28;20029;-80
2023/01/21 00:04:13;;;;;;;5.13;1.88;;;0.40;99.90;;;;;;4974627;28;20025;-80
2023/01/21 00:06:39;;;;;;;3.58;1.40;;;0.40;99.90;;;;;;4974222;28;20045;-82
2023/01/21 00:09:05;;;;;;;11.93;1.45;;;0.40;99.90;;;;;;5004440;28;20034;-83
2023/01/21 00:11:30;;;;;;;2.20;1.67;;;0.40;99.90;;;;;;5011236;28;20037;-81
2023/01/21 00:13:57;;;;;;;2.15;1.85;;;0.50;99.90;;;;;;5011091;28;20037;-79
2023/01/21 00:16:23;;;;;;;2.33;2.13;;;0.50;99.90;;;;;;5009975;28;20026;-81
2023/01/21 00:18:48;;;;;;;1.73;1.55;;;0.40;99.90;;;;;;5011025;28;20164;-80
2023/01/21 00:21:15;;;;;;;3.53;2.28;;;0.50;99.90;;;;;;5010702;28;20038;-80
2023/01/21 00:23:40;;;;;;;1.15;1.05;;;0.40;99.90;;;;;;5010542;28;20037;-80
2023/01/21 00:26:09;;;;;;;2.30;1.17;;;0.40;99.90;;;;;;5010799;28;20026;-81
2023/01/21 00:28:36;;;;;;;1.27;0.93;;;0.40;99.90;;;;;;4992924;28;20026;-81
2023/01/21 00:31:05;;;;;;;1.35;1.25;;;0.50;99.90;;;;;;4961427;28;20057;-80
2023/01/21 00:33:32;;;;;;;4.40;1.85;;;0.50;99.90;;;;;;4992984;28;20026;-80
2023/01/21 00:36:03;;;;;;;3.92;2.55;;;0.50;99.90;;;;;;5010517;28;20474;-80
2023/01/21 00:38:29;;;;;;;1.98;1.80;;;0.50;99.90;;;;;;4993292;28;20060;-80
2023/01/21 00:41:03;;;;;;;5.85;1.45;;;0.40;99.90;;;;;;4993342;28;20068;-80
2023/01/21 00:43:30;;;;;;;2.60;1.23;;;0.40;99.90;;;;;;4992904;28;20026;-80
2023/01/21 00:45:56;;;;;;;10.18;2.40;;;0.40;99.90;;;;;;5010959;28;20389;-81
2023/01/21 00:48:22;;;;;;;2.33;1.77;;;0.40;99.90;;;;;;5010419;28;20080;-81
2023/01/21 00:50:50;;;;;;;9.93;1.20;;;0.40;99.90;;;;;;4993312;28;20084;-78
2023/01/21 00:53:17;;;;;;;2.58;1.35;;;0.40;99.90;;;;;;5010049;28;20033;-81
2023/01/21 00:55:43;;;;;;;2.13;1.40;;;0.40;99.90;;;;;;5010792;28;20585;-80
2023/01/21 00:58:08;;;;;;;4.43;1.73;;;0.40;99.90;;;;;;5010145;28;20113;-81
2023/01/21 01:00:34;;;;;;;3.15;1.92;;;0.40;99.90;;;;;;5010792;28;20116;-81
2023/01/21 01:03:00;;;;;;;4.43;1.92;;;0.40;99.90;;;;;;5010404;28;20049;-81
2023/01/21 01:05:26;;;;;;;1.67;1.38;;;0.50;99.90;;;;;;5012256;28;20092;-81
2023/01/21 01:07:51;;;;;;;12.45;1.83;;;0.50;99.90;;;;;;5015460;28;20037;-80
2023/01/21 01:10:17;;;;;;;2.25;2.03;;;0.50;99.90;;;;;;5005659;28;20363;-80
2023/01/21 01:12:43;;;;;;;1.65;1.35;;;0.40;99.90;;;;;;4992822;28;20055;-80
2023/01/21 01:15:09;;;;;;;5.43;2.13;;;0.40;99.90;;;;;;4992936;28;20034;-81
2023/01/21 01:17:35;;;;;;;2.28;1.65;;;0.40;99.90;;;;;;4992567;28;20038;-80
2023/01/21 01:20:01;;;;;;;4.53;2.08;;;0.60;99.90;;;;;;5009495;28;20036;-80
2023/01/21 01:22:27;;;;;;;16.17;1.77;;;0.70;99.90;;;;;;4992641;28;20034;-80
2023/01/21 01:24:53;;;;;;;4.82;1.95;;;0.70;99.90;;;;;;4997880;28;20034;-79
2023/01/21 01:27:19;;;;;;;1.70;1.15;;;0.70;99.90;;;;;;4992691;28;20154;-79
2023/01/21 01:29:44;;;;;;;2.67;1.60;;;0.90;99.90;;;;;;5009882;28;20057;-79
2023/01/21 01:32:10;;;;;;;4.22;2.10;;;0.90;99.90;;;;;;5009249;28;20100;-79
2023/01/21 01:34:37;;;;;;;3.17;1.58;;;0.80;99.90;;;;;;5011550;28;20037;-80
2023/01/21 01:37:03;;;;;;;4.53;1.67;;;0.80;99.90;;;;;;5014031;28;20029;-80
2023/01/21 01:39:30;;;;;;;1.90;1.35;;;0.60;99.90;;;;;;5013753;28;20072;-80
2023/01/21 01:41:56;;;;;;;2.28;1.42;;;0.70;99.90;;;;;;5013932;28;20065;-80
2023/01/21 01:45:15;;;;;;;2.40;1.63;;;0.60;99.90;;;;;;5013406;28;20045;-80
2023/01/21 01:48:05;;;;;;;2.65;1.92;;;0.70;99.90;;;;;;4967787;28;20046;-79
2023/01/21 01:50:36;;;;;;;1.98;1.20;;;0.60;99.90;;;;;;5007780;28;20038;-79
2023/01/21 01:53:02;;;;;;;2.85;2.25;;;0.70;99.90;;;;;;4996018;28;20482;-80
2023/01/21 01:55:32;;;;;;;3.55;2.13;;;0.80;99.90;;;;;;4996108;28;20034;-80
2023/01/21 01:57:58;;;;;;;3.47;2.83;;;0.90;99.90;;;;;;5013109;28;20568;-80
2023/01/21 02:00:26;;;;;;;3.95;2.03;;;0.90;99.90;;;;;;4996168;28;20040;-80
2023/01/21 02:05:39;;;;;;;3.78;2.03;;;0.80;99.90;;;;;;4993285;28;20045;-79
2023/01/21 02:08:06;;;;;;;3.00;2.70;;;0.80;99.90;;;;;;4997241;28;20489;-79
2023/01/21 02:10:33;;;;;;;2.25;1.58;;;0.80;99.90;;;;;;5017911;28;20037;-79
2023/01/21 02:13:00;;;;;;;5.15;2.63;;;0.80;99.90;;;;;;4996410;28;20029;-78
2023/01/21 02:15:39;;;;;;;2.50;1.65;;;0.90;99.90;;;;;;5011979;28;20026;-78
2023/01/21 02:18:12;;;;;;;4.57;3.13;;;0.90;99.90;;;;;;5011709;28;20026;-78
2023/01/21 02:21:26;;;;;;;3.35;2.15;;;0.80;99.90;;;;;;4995819;28;20034;-79
2023/01/21 02:24:48;;;;;;;5.40;2.72;;;0.80;99.90;;;;;;4985718;23;20100;-74
2023/01/21 02:27:39;;;;;;;;;;;0.80;99.90;;;;;;5016635;28;20037;-74
2023/01/21 02:30:38;;;;;;;;;;;0.70;99.90;;;;;;5013113;28;20003;-75
2023/01/21 02:33:35;;;;;;;3.50;1.77;;;0.70;99.90;;;;;;4997222;28;19909;-74
2023/01/21 02:36:18;;;;;;;7.18;2.20;;;0.70;99.90;;;;;;4976112;28;20117;-75
2023/01/21 02:39:08;;;;;;;3.85;2.58;;;0.70;99.90;;;;;;4992847;28;20109;-75
2023/01/21 02:42:00;;;;;;;7.68;2.47;;;0.70;99.90;;;;;;4976113;28;20031;-75
2023/01/21 02:44:46;;;;;;;3.30;2.35;;;0.80;99.90;;;;;;4969996;28;20518;-75
2023/01/21 02:47:36;;;;;;;5.35;2.97;;;0.70;99.90;;;;;;4975548;28;20034;-75
2023/01/21 02:50:11;;;;;;;4.60;2.60;;;0.80;99.90;;;;;;4970813;28;20049;-75
2023/01/21 02:52:37;;;;;;;5.97;3.17;;;0.80;99.90;;;;;;4976777;28;20065;-75
2023/01/21 02:55:03;;;;;;;8.30;3.88;;;0.80;99.90;;;;;;4992506;28;20070;-75
2023/01/21 02:57:48;;;;;;;2.88;2.15;;;0.70;99.90;;;;;;4992885;28;20041;-75
2023/01/21 03:00:27;;;;;;;3.90;3.15;;;0.80;99.90;;;;;;4970449;28;20652;-75
2023/01/21 03:03:33;;;;;;;17.50;3.65;;;0.70;99.90;;;;;;4975409;28;20034;-75
2023/01/21 03:06:34;;;;;;;4.72;3.30;;;0.70;99.90;;;;;;4990404;28;20398;-75
2023/01/21 03:09:16;;;;;;;5.90;3.55;;;0.60;99.90;;;;;;4987321;28;20031;-75
2023/01/21 03:12:07;;;;;;;5.50;3.80;;;0.60;99.90;;;;;;4992864;28;20034;-75
2023/01/21 03:18:02;;;;;;;6.72;3.58;;;0.60;99.90;;;;;;4978990;28;20121;-74
2023/01/21 03:20:35;;;;;;;9.10;5.25;;;0.50;99.90;;;;;;4987025;28;20125;-75
2023/01/21 03:23:20;;;;;;;6.13;4.95;;;0.60;99.90;;;;;;4975523;28;20038;-75
2023/01/21 03:25:48;;;;;;;6.45;3.83;;;0.40;99.90;;;;;;4971829;28;20034;-75
2023/01/21 03:28:21;;;;;;;9.57;4.20;;;0.30;99.90;;;;;;4974486;28;20022;-75
2023/01/21 03:31:13;;;;;;;5.05;3.72;;;0.20;99.90;;;;;;4978678;28;20034;-74
2023/01/21 03:33:44;;;;;;;9.07;4.55;;;0.20;99.90;;;;;;4977078;28;20028;-74
2023/01/21 03:36:41;;;;;;;6.72;3.90;;;0.10;99.90;;;;;;4975820;28;20041;-73
2023/01/21 03:39:19;;;;;;;9.55;4.35;;;0.10;99.90;;;;;;4961299;28;20031;-76
2023/01/21 03:41:45;;;;;;;7.40;3.65;;;0.10;99.90;;;;;;4975221;28;20034;-74
2023/01/21 03:44:12;;;;;;;9.50;4.47;;;0.10;99.90;;;;;;4968979;28;20042;-74
2023/01/21 03:46:52;;;;;;;5.80;3.50;;;0.20;99.90;;;;;;4974454;28;20450;-74
2023/01/21 03:49:31;;;;;;;7.82;4.22;;;0.20;99.90;;;;;;4968552;28;20038;-74
2023/01/21 03:52:00;;;;;;;8.13;5.85;;;0.10;99.90;;;;;;4975899;28;20038;-74
2023/01/21 03:54:26;;;;;;;17.73;5.00;;;0.10;99.90;;;;;;4969228;28;20034;-74
2023/01/21 03:56:51;;;;;;;13.80;5.65;;;0.20;99.90;;;;;;4974328;28;20042;-74
2023/01/21 03:59:17;;;;;;;8.07;6.45;;;0.20;99.90;;;;;;4985806;28;20402;-74
2023/01/21 04:01:43;;;;;;;12.13;5.40;;;0.00;99.90;;;;;;4991655;28;20034;-73
2023/01/21 04:04:09;;;;;;;8.75;4.75;;;-0.10;99.90;;;;;;4981830;28;20102;-74
2023/01/21 04:06:35;;;;;;;13.18;5.78;;;-0.20;99.90;;;;;;4981925;28;20046;-73
2023/01/21 04:09:04;;;;;;;9.68;5.50;;;-0.30;99.90;;;;;;4991344;28;20026;-74
2023/01/21 04:11:29;;;;;;;8.98;5.75;;;-0.20;99.90;;;;;;4991411;28;20057;-74
2023/01/21 04:13:55;;;;;;;13.57;5.60;;;-0.20;99.90;;;;;;4990843;28;20463;-73
2023/01/21 04:16:21;;;;;;;8.82;5.75;;;-0.20;99.90;;;;;;4991218;28;20058;-74
2023/01/21 04:18:46;;;;;;;8.30;4.03;;;-0.10;99.90;;;;;;4986284;28;20045;-74
2023/01/21 04:21:13;;;;;;;8.68;5.35;;;-0.20;99.90;;;;;;4990848;28;20425;-74
2023/01/21 04:23:39;;;;;;;11.40;6.22;;;-0.20;99.90;;;;;;4969637;28;20390;-74
2023/01/21 04:26:04;;;;;;;10.95;7.60;;;-0.20;99.90;;;;;;4988527;28;20105;-74
2023/01/21 04:28:30;;;;;;;11.27;6.38;;;-0.20;99.90;;;;;;4990681;28;20080;-73
2023/01/21 04:30:56;;;;;;;15.90;5.38;;;-0.20;99.90;;;;;;4991273;28;20034;-74
2023/01/21 04:33:22;;;;;;;11.80;5.65;;;-0.20;99.90;;;;;;4990658;28;20383;-74
2023/01/21 04:35:47;;;;;;;10.85;5.97;;;-0.10;99.90;;;;;;4991130;28;20051;-74
2023/01/21 04:38:14;;;;;;;15.05;6.40;;;-0.10;99.90;;;;;;4990334;28;20030;-74
2023/01/21 04:40:40;;;;;;;13.40;7.70;;;-0.20;99.90;;;;;;4991161;28;20080;-74
2023/01/21 04:43:06;;;;;;;10.35;4.93;;;-0.20;99.90;;;;;;4973507;28;20026;-74
2023/01/21 04:45:32;;;;;;;17.23;7.63;;;-0.30;99.90;;;;;;4967845;28;20042;-74
2023/01/21 04:47:58;;;;;;;7.57;4.60;;;-0.40;99.90;;;;;;4990890;28;20023;-74
2023/01/21 04:50:24;;;;;;;17.75;4.05;;;-0.50;99.90;;;;;;4990569;28;20051;-74
2023/01/21 04:52:50;;;;;;;6.30;3.80;;;-0.50;99.90;;;;;;4991076;28;20038;-74
2023/01/21 04:55:15;;;;;;;9.45;5.47;;;-0.60;99.90;;;;;;4990517;28;20030;-74
2023/01/21 04:57:41;;;;;;;13.55;4.28;;;-0.60;99.90;;;;;;4990933;28;20057;-75
2023/01/21 05:00:08;;;;;;;7.43;5.50;;;-0.60;99.90;;;;;;4990330;28;20091;-74
2023/01/21 05:02:34;;;;;;;13.00;5.03;;;-0.60;99.90;;;;;;4990476;28;20037;-74
2023/01/21 05:05:00;;;;;;;9.80;6.45;;;-0.60;99.90;;;;;;4966430;28;20038;-74
2023/01/21 05:07:26;;;;;;;11.13;4.30;;;-0.90;99.90;;;;;;4987660;28;20041;-75
2023/01/21 05:09:52;;;;;;;7.28;4.00;;;-1.00;99.90;;;;;;4973973;28;20106;-76
2023/01/21 05:12:17;;;;;;;12.00;5.47;;;-1.00;99.90;;;;;;4991449;28;20029;-75
2023/01/21 05:14:43;;;;;;;7.07;5.45;;;-1.10;99.90;;;;;;4977000;28;20030;-75
2023/01/21 05:17:09;;;;;;;7.90;4.38;;;-1.20;99.90;;;;;;4976564;28;20158;-76
2023/01/21 05:19:34;;;;;;;10.77;5.63;;;-1.30;99.90;;;;;;4994786;28;20033;-76
2023/01/21 05:22:00;;;;;;;5.35;3.85;;;-1.40;99.90;;;;;;4994086;28;20034;-76
2023/01/21 05:24:26;;;;;;;8.32;4.15;;;-1.50;99.90;;;;;;4994408;28;20076;-76
2023/01/21 05:26:52;;;;;;;10.60;4.97;;;-1.40;99.90;;;;;;4993777;28;20027;-76
2023/01/21 05:29:17;;;;;;;10.75;5.88;;;-1.40;99.90;;;;;;4994144;28;20561;-76
2023/01/21 05:31:43;;;;;;;8.13;5.18;;;-1.40;99.90;;;;;;4987281;28;20046;-76
2023/01/21 05:34:10;;;;;;;8.55;4.68;;;-1.40;99.90;;;;;;4976441;28;20513;-76
2023/01/21 05:36:37;;;;;;;6.85;5.20;;;-1.30;99.90;;;;;;4969380;28;20162;-76
2023/01/21 05:39:03;;;;;;;16.98;5.53;;;-1.30;99.90;;;;;;4994100;28;20026;-76
2023/01/21 05:41:29;;;;;;;5.28;3.65;;;-1.20;99.90;;;;;;4969631;28;20105;-76
2023/01/21 05:43:54;;;;;;;9.20;5.32;;;-1.30;99.90;;;;;;4994153;28;20105;-76
2023/01/21 05:46:20;;;;;;;9.10;4.75;;;-1.30;99.90;;;;;;4969063;28;20569;-77
2023/01/21 05:48:46;;;;;;;9.57;4.13;;;-1.30;99.90;;;;;;4976615;28;20084;-77
2023/01/21 05:51:12;;;;;;;4.65;3.15;;;-1.30;99.90;;;;;;4993341;28;20034;-77
2023/01/21 05:53:38;;;;;;;11.35;5.10;;;-1.40;99.90;;;;;;4993841;28;20533;-76
2023/01/21 05:56:04;;;;;;;6.10;3.30;;;-1.50;99.90;;;;;;4993394;28;20042;-77
2023/01/21 05:58:30;;;;;;;6.65;3.72;;;-1.40;99.90;;;;;;4993908;28;20072;-76
2023/01/21 06:00:57;;;;;;;7.40;4.47;;;-1.30;99.90;;;;;;4968701;28;20042;-77
2023/01/21 06:03:23;;;;;;;5.63;3.53;;;-1.40;99.90;;;;;;4976278;28;20391;-77
2023/01/21 06:05:50;;;;;;;10.07;4.40;;;-1.50;99.90;;;;;;4969381;28;20027;-77
2023/01/21 06:08:16;;;;;;;8.32;4.57;;;-1.60;99.90;;;;;;4993730;28;20104;-77
2023/01/21 06:10:42;;;;;;;9.85;5.13;;;-1.70;99.90;;;;;;4993065;28;20037;-77
2023/01/21 06:13:12;;;;;;;5.88;4.43;;;-1.60;99.90;;;;;;4976150;28;20030;-77
2023/01/21 06:15:38;;;;;;;14.82;6.40;;;-1.70;99.90;;;;;;4970372;28;20034;-77
2023/01/21 06:18:04;;;;;;;4.45;3.63;;;-1.70;99.90;;;;;;4991837;28;20026;-77
2023/01/21 06:20:30;;;;;;;5.80;3.90;;;-1.80;99.90;;;;;;4971220;28;20518;-76
2023/01/21 06:22:57;;;;;;;12.98;5.88;;;-1.90;99.90;;;;;;4990477;28;20034;-76
2023/01/21 06:25:24;;;;;;;5.95;3.53;;;-1.90;99.90;;;;;;4972392;28;20026;-76
2023/01/21 06:27:52;;;;;;;6.95;4.25;;;-2.00;99.90;;;;;;4988275;28;20040;-76
2023/01/21 06:30:18;;;;;;;7.80;4.20;;;-2.10;99.90;;;;;;4993074;28;20031;-76
2023/01/21 06:32:43;;;;;;;8.02;4.43;;;-2.10;99.90;;;;;;4992768;28;20092;-76
2023/01/21 06:35:09;;;;;;;4.38;3.08;;;-2.20;99.90;;;;;;4975190;28;20034;-74
2023/01/21 06:37:35;;;;;;;5.95;3.15;;;-2.20;99.90;;;;;;4992399;28;20474;-75
2023/01/21 06:40:00;;;;;;;6.40;4.60;;;-2.20;99.90;;;;;;4975223;28;20041;-75
2023/01/21 06:42:26;;;;;;;6.05;4.35;;;-2.20;99.90;;;;;;4981654;28;20084;-74
2023/01/21 06:44:52;;;;;;;9.45;4.43;;;-2.30;99.90;;;;;;4998254;28;20519;-76
2023/01/21 06:47:17;;;;;;;6.38;2.50;;;-2.20;99.90;;;;;;4992172;28;20030;-77
2023/01/21 06:49:43;;;;;;;4.53;2.50;;;-2.20;99.90;;;;;;4972413;28;20035;-76
2023/01/21 06:52:09;;;;;;;5.00;3.15;;;-2.20;99.90;;;;;;4991432;28;20066;-77
2023/01/21 06:54:34;;;;;;;4.85;3.28;;;-2.20;99.90;;;;;;4975420;28;20035;-77
2023/01/21 06:57:00;;;;;;;6.90;2.88;;;-2.10;99.90;;;;;;4974696;28;20389;-76
2023/01/21 06:59:26;;;;;;;7.00;4.60;;;-2.10;99.90;;;;;;4992976;28;20093;-75
2023/01/21 07:01:52;;;;;;;5.85;4.95;;;-2.20;99.90;;;;;;4978527;28;20174;-77
2023/01/21 07:04:18;;;;;;;5.45;3.33;;;-2.20;99.90;;;;;;4992565;28;20038;-78
2023/01/21 07:06:44;;;;;;;8.18;2.97;;;-2.20;99.90;;;;;;4967571;28;20117;-79
2023/01/21 07:09:10;;;;;;;6.22;3.55;;;-2.30;99.90;;;;;;4956655;28;20452;-86
2023/01/21 07:11:35;;;;;;;3.28;2.08;;;-2.20;99.90;;;;;;4993856;28;20037;-84
2023/01/21 07:14:01;;;;;;;6.18;3.65;;;-2.20;99.90;;;;;;4993861;28;20038;-81
2023/01/21 07:16:27;;;;;;;12.35;4.47;;;-2.30;99.90;;;;;;4985602;28;20146;-81
2023/01/21 07:18:52;;;;;;;5.82;2.67;;;-2.30;99.90;;;;;;4992617;28;20513;-82
2023/01/21 07:21:18;;;;;;;15.68;4.80;;;-2.20;99.90;;;;;;4985442;28;20045;-82
2023/01/21 07:23:45;;;;;;;5.97;3.15;;;-2.20;99.90;;;;;;4992027;28;20544;-76
2023/01/21 07:26:11;;;;;;;5.38;2.95;;;-2.20;99.90;;;;;;4991945;28;20037;-76
2023/01/21 07:28:36;;;;;;;6.05;3.28;;;-2.30;99.90;;;;;;4992051;28;20030;-76
2023/01/21 07:31:03;;;;;;;11.27;4.53;;;-2.30;99.90;;;;;;4984950;28;20181;-75
2023/01/21 07:33:28;;;;;;;7.35;3.58;;;-2.20;99.90;;;;;;4991960;28;20030;-76
2023/01/21 07:35:55;;;;;;;10.05;5.97;;;-2.20;99.90;;;;;;4990984;28;20399;-76
2023/01/21 07:38:21;;;;;;;4.03;3.08;;;-2.20;99.90;;;;;;4974601;28;20038;-76
2023/01/21 07:40:48;;;;;;;6.82;5.45;;;-2.20;99.90;;;;;;4991422;28;20084;-77
2023/01/21 07:43:14;;;;;;;8.07;4.13;;;-2.10;99.90;;;;;;4974988;28;20034;-77
2023/01/21 07:45:40;;;;;;;7.47;4.35;;;-2.20;99.90;;;;;;4968312;28;20403;-76
2023/01/21 07:48:06;;;;;;;5.18;3.13;;;-2.10;99.90;;;;;;4990137;28;20090;-77
2023/01/21 07:50:32;;;;;;;10.80;4.30;;;-2.10;99.90;;;;;;4987473;28;20031;-76
2023/01/21 07:52:58;;;;;;;9.68;4.57;;;-2.20;99.90;;;;;;4989637;28;20030;-77
2023/01/21 07:55:25;;;;;;;4.65;3.00;;;-2.10;99.90;;;;;;4991272;28;20430;-77
2023/01/21 07:57:51;;;;;;;4.70;3.40;;;-2.20;99.90;;;;;;4976668;28;20049;-78
2023/01/21 08:00:17;;;;;;;4.13;1.95;;;-2.10;99.90;;;;;;4991474;28;20030;-76
2023/01/21 08:02:43;;;;;;;6.40;3.80;;;-2.20;99.90;;;;;;4991338;28;20102;-75
2023/01/21 08:05:09;;;;;;;10.07;3.45;;;-2.20;99.90;;;;;;4973850;28;20491;-75
2023/01/21 08:07:35;;;;;;;10.90;4.25;;;-2.20;99.90;;;;;;4968839;28;20083;-75
2023/01/21 08:10:01;;;;;;;9.57;4.20;;;-2.10;99.90;;;;;;4991002;28;20033;-75
2023/01/21 08:12:27;;;;;;;7.22;3.47;;;-2.10;99.90;;;;;;4968726;28;20076;-76
2023/01/21 08:14:53;;;;;;;5.68;4.97;;;-2.00;99.90;;;;;;4991323;28;20482;-76
2023/01/21 08:17:19;;;;;;;11.63;4.47;;;-2.00;99.90;;;;;;4990675;28;20038;-76
2023/01/21 08:19:44;;;;;;;7.72;5.68;;;-1.90;99.90;;;;;;4991496;28;20045;-76
2023/01/21 08:22:10;;;;;;;8.07;4.40;;;-1.90;99.90;;;;;;4990822;28;20077;-76
2023/01/21 08:24:36;;;;;;;8.20;4.13;;;-1.80;99.90;;;;;;5019031;23;20052;-73
2023/01/21 08:27:01;;;;;;;7.43;3.03;;;-1.80;99.90;;;;;;4991553;28;20026;-73
2023/01/21 08:29:28;;;;;;;7.22;3.15;;;-1.70;99.90;;;;;;5001258;28;20034;-73
2023/01/21 08:31:53;;;;;;;14.10;6.38;;;-1.60;99.90;;;;;;5000999;28;20025;-71
2023/01/21 08:34:19;;;;;;;5.82;3.78;;;-1.60;99.90;;;;;;5029820;28;20036;-73
2023/01/21 08:36:45;;;;;;;4.25;3.13;;;-1.60;99.90;;;;;;5008797;28;20041;-76
2023/01/21 08:39:15;;;;;;;6.30;4.45;;;-1.60;99.90;;;;;;5029726;28;20025;-76
2023/01/21 08:41:42;;;;;;;5.68;4.82;;;-1.50;99.90;;;;;;5025476;28;20033;-74
2023/01/21 08:44:09;;;;;;;7.38;3.03;;;-1.40;99.90;;;;;;5029121;28;20025;-74
2023/01/21 08:46:35;;;;;;;9.70;4.78;;;-1.30;99.90;;;;;;5031177;28;20108;-74
2023/01/21 08:49:00;;;;;;;6.95;3.30;;;-1.20;99.90;;;;;;5034447;28;20594;-74
2023/01/21 08:51:26;;;;;;;10.13;5.03;;;-1.10;99.90;;;;;;5033457;28;20481;-75
2023/01/21 08:53:52;;;;;;;13.80;6.38;;;-1.00;99.90;;;;;;5034256;28;20037;-75
2023/01/21 08:56:18;;;;;;;8.88;4.53;;;-1.00;99.90;;;;;;5032146;28;20118;-75
2023/01/21 08:58:44;;;;;;;8.60;5.68;;;-0.90;99.90;;;;;;5029970;28;20037;-76
2023/01/21 09:01:14;;;;;;;13.13;6.22;;;-0.80;99.90;;;;;;5031911;28;20164;-74
2023/01/21 09:03:39;;;;;;;12.32;7.47;;;-0.70;99.90;;;;;;5034130;28;20112;-76
2023/01/21 09:06:07;;;;;;;6.07;4.70;;;-0.70;99.90;;;;;;5033428;28;20120;-76
2023/01/21 09:08:35;;;;;;;18.75;8.25;;;-0.60;99.90;;;;;;5015906;28;20033;-76
2023/01/21 09:11:02;;;;;;;12.88;4.95;;;-0.50;99.90;;;;;;5033113;28;20059;-76
2023/01/21 09:13:35;;;;;;;9.70;4.88;;;-0.40;99.90;;;;;;5033259;28;20031;-76
2023/01/21 09:16:05;;;;;;;8.15;4.45;;;-0.40;99.90;;;;;;5032801;28;20029;-76
2023/01/21 09:18:31;;;;;;;15.63;6.15;;;-0.30;99.90;;;;;;5033306;28;20037;-75
2023/01/21 09:21:02;;;;;;;10.70;4.90;;;-0.30;99.90;;;;;;5032641;28;20496;-75
2023/01/21 09:23:31;;;;;;;15.15;8.35;;;-0.50;99.90;;;;;;5033115;28;20030;-76
2023/01/21 09:26:20;;;;;;;12.68;5.65;;;-0.40;99.90;;;;;;5033740;28;20450;-76
2023/01/21 09:28:55;;;;;;;10.93;6.70;;;-0.10;99.90;;;;;;5028624;28;20040;-75
2023/01/21 09:31:23;;;;;;;16.40;6.22;;;-0.50;99.90;;;;;;5014309;28;20338;-76
2023/01/21 09:33:53;;;;;;;17.70;7.40;;;-0.30;99.90;;;;;;5029900;28;20025;-75
2023/01/21 09:36:22;;;;;;;10.02;5.38;;;-0.20;99.90;;;;;;5013849;28;20034;-74
2023/01/21 09:38:50;;;;;;;15.43;8.07;;;-0.20;99.90;;;;;;5033371;28;20397;-74
2023/01/21 09:41:40;;;;;;;13.50;6.22;;;-0.10;99.90;;;;;;5013626;28;20494;-75
2023/01/21 09:44:42;;;;;;;14.63;8.10;;;0.10;99.90;;;;;;5024727;28;20057;-74
2023/01/21 09:47:21;;;;;;;9.73;6.93;;;0.10;99.90;;;;;;5015102;28;20033;-75
2023/01/21 09:49:53;;;;;;;12.05;4.78;;;0.20;99.90;;;;;;5033453;28;20032;-75
2023/01/21 09:52:40;;;;;;;13.40;6.18;;;0.10;99.90;;;;;;5027017;28;20397;-74
2023/01/21 09:55:32;;;;;;;14.13;6.82;;;0.10;99.90;;;;;;5033340;28;20069;-75
2023/01/21 09:58:27;;;;;;;14.93;6.97;;;0.00;99.90;;;;;;5030501;28;20120;-75
2023/01/21 10:01:32;;;;;;;10.55;6.32;;;0.30;99.90;;;;;;5032073;28;20401;-76
2023/01/21 10:04:30;;;;;;;14.20;8.02;;;0.20;99.90;;;;;;5027109;28;20048;-74
2023/01/21 10:07:04;;;;;;;19.52;7.72;;;0.40;99.90;;;;;;5027809;28;20036;-72
2023/01/21 10:09:59;;;;;;;14.13;6.78;;;0.30;99.90;;;;;;5031593;28;20528;-72
2023/01/21 10:13:12;;;;;;;11.30;7.22;;;0.40;99.90;;;;;;5031092;28;20039;-74
2023/01/21 10:16:08;;;;;;;10.95;6.25;;;0.40;99.90;;;;;;4966504;28;20529;-70
2023/01/21 10:18:38;;;;;;;13.25;7.05;;;0.40;99.90;;;;;;5031337;28;20041;-71
2023/01/21 10:21:22;;;;;;;15.98;6.13;;;0.50;99.90;;;;;;5031194;28;20115;-74
2023/01/21 10:24:01;;;;;;;16.77;8.73;;;0.40;99.90;;;;;;5028525;28;20397;-73
2023/01/21 10:26:28;;;;;;;16.35;8.23;;;0.50;99.90;;;;;;4997987;28;20083;-76
2023/01/21 10:28:54;;;;;;;16.83;7.80;;;0.60;99.90;;;;;;5023138;28;20116;-73
2023/01/21 10:31:25;;;;;;;10.80;7.07;;;0.70;99.90;;;;;;5030481;28;20033;-72
2023/01/21 10:33:51;;;;;;;22.50;8.32;;;0.80;99.90;;;;;;5011869;28;20076;-72
2023/01/21 10:37:01;;;;;;;16.23;6.88;;;0.90;99.90;;;;;;5014449;28;20178;-71
2023/01/21 10:40:41;;;;;;;13.90;6.75;;;1.00;99.90;;;;;;5025846;28;20111;-71
2023/01/21 10:43:34;;;;;;;18.02;7.88;;;1.20;99.90;;;;;;5002330;28;20510;-74
2023/01/21 10:46:28;;;;;;;8.63;5.10;;;1.40;99.90;;;;;;5032171;28;20095;-70
2023/01/21 10:49:19;;;;;;;20.70;7.10;;;1.50;99.90;;;;;;5028019;28;20064;-69
2023/01/21 10:51:58;;;;;;;;;;;1.40;99.90;;;;;;5026885;28;20026;-70
2023/01/21 10:55:11;;;;;;;13.20;6.65;;;1.40;99.90;;;;;;5025029;28;19991;-70
2023/01/21 10:57:58;;;;;;;36.20;6.57;;;1.30;99.90;;;;;;5027297;28;20048;-71
2023/01/21 11:00:46;;;;;;;18.35;6.70;;;1.30;99.90;;;;;;5020889;28;20491;-80
2023/01/21 11:03:40;;;;;;;12.45;6.03;;;1.40;99.90;;;;;;5019311;28;20056;-76
2023/01/21 11:06:11;;;;;;;13.90;5.78;;;1.50;99.90;;;;;;5011646;28;20078;-86
2023/01/21 11:08:40;;;;;;;12.17;5.00;;;1.40;99.90;;;;;;5030779;28;20036;-72
2023/01/21 11:11:07;;;;;;;16.83;8.65;;;1.30;99.90;;;;;;5029773;28;20032;-73
2023/01/21 11:13:34;;;;;;;8.60;5.70;;;1.30;99.90;;;;;;5029676;28;20068;-73
2023/01/21 11:16:00;;;;;;;16.13;8.40;;;1.40;99.90;;;;;;5031514;28;20025;-73
2023/01/21 11:18:40;;;;;;;13.60;8.18;;;1.40;99.90;;;;;;5029393;28;20386;-72
2023/01/21 11:21:18;;;;;;;10.85;6.97;;;1.40;99.90;;;;;;5030412;28;20065;-73
2023/01/21 11:23:57;;;;;;;13.05;7.90;;;1.60;99.90;;;;;;5030124;28;20135;-74
2023/01/21 11:26:35;;;;;;;21.50;7.90;;;1.80;99.90;;;;;;5010102;28;20026;-76
2023/01/21 11:29:17;;;;;;;19.40;7.57;;;1.90;99.90;;;;;;5029437;28;20037;-75
2023/01/21 11:31:49;;;;;;;16.95;7.40;;;1.80;99.90;;;;;;5027462;28;21948;-75
2023/01/21 11:34:19;;;;;;;15.43;7.82;;;1.60;99.90;;;;;;5030580;28;20029;-76
2023/01/21 11:37:06;;;;;;;15.43;6.30;;;1.40;99.90;;;;;;5013382;28;20477;-77
2023/01/21 11:39:37;;;;;;;14.63;7.50;;;1.40;99.90;;;;;;5017077;28;20029;-77
2023/01/21 11:42:14;;;;;;;13.52;5.72;;;1.40;99.90;;;;;;5029603;28;20492;-77
2023/01/21 11:45:00;;;;;;;7.70;4.38;;;1.30;99.90;;;;;;5030169;28;20112;-77
2023/01/21 11:47:48;;;;;;;15.18;8.75;;;1.20;99.90;;;;;;5027515;28;20037;-76
2023/01/21 11:50:38;;;;;;;9.63;5.68;;;1.30;99.90;;;;;;5013726;28;20025;-76
2023/01/21 11:53:07;;;;;;;11.13;6.80;;;1.40;99.90;;;;;;5030051;28;20071;-77
2023/01/21 11:55:52;;;;;;;16.08;7.65;;;1.20;99.90;;;;;;5031009;28;20061;-77
2023/01/21 11:58:37;;;;;;;22.05;5.88;;;1.10;99.90;;;;;;5028920;28;20500;-76
2023/01/21 12:01:09;;;;;;;10.63;5.68;;;0.80;99.90;;;;;;5031006;28;20029;-76
2023/01/21 12:03:51;;;;;;;14.02;7.05;;;0.90;99.90;;;;;;5029054;28;20370;-76
2023/01/21 12:06:27;;;;;;;12.23;6.40;;;0.70;99.90;;;;;;5020534;28;20109;-76
2023/01/21 12:08:59;;;;;;;11.30;5.93;;;0.70;99.90;;;;;;5021825;28;20106;-76
2023/01/21 12:11:28;;;;;;;11.63;7.10;;;0.80;99.90;;;;;;5020406;28;20501;-76
2023/01/21 12:14:43;;;;;;;8.57;4.57;;;0.80;99.90;;;;;;5009482;28;20112;-76
2023/01/21 12:17:42;;;;;;;10.68;6.30;;;0.60;99.90;;;;;;4968652;28;20062;-76
2023/01/21 12:20:32;;;;;;;11.55;4.40;;;0.80;99.90;;;;;;4994177;28;20030;-76
2023/01/21 12:23:18;;;;;;;11.63;4.20;;;1.00;99.90;;;;;;5020193;28;20112;-77
2023/01/21 12:25:56;;;;;;;14.02;5.28;;;1.00;99.90;;;;;;5030764;28;20761;-76
2023/01/21 12:28:50;;;;;;;9.77;4.50;;;0.90;99.90;;;;;;5022675;28;20061;-63
2023/01/21 12:31:47;;;;;;;18.50;7.18;;;1.60;99.90;;;;;;5025573;28;20084;-75
2023/01/21 12:34:42;;;;;;;16.95;7.90;;;1.40;99.90;;;;;;5030231;28;20142;-74
2023/01/21 12:37:18;;;;;;;10.80;4.47;;;1.40;99.90;;;;;;5027193;28;20040;-76
2023/01/21 12:39:45;;;;;;;21.65;6.88;;;1.30;99.90;;;;;;5030497;28;20037;-74
2023/01/21 12:42:28;;;;;;;9.55;4.82;;;1.20;99.90;;;;;;5028299;28;20034;-74
2023/01/21 12:45:03;;;;;;;14.50;5.57;;;1.10;99.90;;;;;;5030135;28;20057;-75
2023/01/21 12:47:40;;;;;;;9.38;4.70;;;0.90;99.90;;;;;;5028165;28;20112;-73
2023/01/21 12:50:34;;;;;;;10.80;5.65;;;0.90;99.90;;;;;;5030335;28;20444;-76
2023/01/21 12:53:22;;;;;;;10.02;4.22;;;0.80;99.90;;;;;;5026974;28;20481;-72
2023/01/21 12:56:36;;;;;;;6.35;3.88;;;0.90;99.90;;;;;;5029158;28;20042;-73
2023/01/21 12:59:23;;;;;;;8.00;3.35;;;0.90;99.90;;;;;;5028461;28;20049;-73
2023/01/21 13:02:21;;;;;;;11.15;5.28;;;0.80;99.90;;;;;;5028377;28;20497;-76
2023/01/21 13:05:14;;;;;;;8.70;4.97;;;0.70;99.90;;;;;;5010216;28;20063;-76
2023/01/21 13:07:57;;;;;;;3.92;2.50;;;0.80;99.90;;;;;;5008671;28;20037;-75
2023/01/21 13:10:38;;;;;;;8.15;4.10;;;0.60;99.90;;;;;;5013741;28;20061;-75
2023/01/21 13:13:48;;;;;;;5.13;3.53;;;0.70;99.90;;;;;;5028838;28;20036;-74
2023/01/21 13:16:14;;;;;;;7.53;3.25;;;0.90;99.90;;;;;;5023739;28;20584;-75
2023/01/21 13:18:50;;;;;;;10.07;4.65;;;1.00;99.90;;;;;;5030019;28;20037;-75
2023/01/21 13:21:52;;;;;;;7.38;4.40;;;1.10;99.90;;;;;;5011729;28;20103;-70
2023/01/21 13:24:24;;;;;;;13.00;4.40;;;1.10;99.90;;;;;;5003454;28;20041;-74
2023/01/21 13:27:14;;;;;;;;;;;1.20;99.90;;;;;;5020114;28;20026;-72
2023/01/21 13:30:02;;;;;;;6.85;4.50;;;1.10;99.90;;;;;;4993170;28;20328;-79